sensor_id;sensor_type;location;lat;lon;timestamp;temperature;humidity
77039;DHT22;65970;50.476;4.840;2023-06-14T00:00:11;23.00;5.20
77039;DHT22;65970;50.476;4.840;2023-06-14T00:05:11;22.90;5.00
77039;DHT22;65970;50.476;4.840;2023-06-14T00:10:12;22.70;6.80
77039;DHT22;65970;50.476;4.840;2023-06-14T00:15:12;22.70;6.30
77039;DHT22;65970;50.476;4.840;2023-06-14T00:20:13;22.70;6.50
77039;DHT22;65970;50.476;4.840;2023-06-14T00:25:13;22.50;7.20
77039;DHT22;65970;50.476;4.840;2023-06-14T00:30:14;22.50;6.80
77039;DHT22;65970;50.476;4.840;2023-06-14T00:35:14;22.50;8.20
77039;DHT22;65970;50.476;4.840;2023-06-14T00:40:15;22.40;7.40
77039;DHT22;65970;50.476;4.840;2023-06-14T00:45:15;22.30;8.50
77039;DHT22;65970;50.476;4.840;2023-06-14T00:50:16;22.40;8.80
77039;DHT22;65970;50.476;4.840;2023-06-14T00:55:16;22.30;9.50
77039;DHT22;65970;50.476;4.840;2023-06-14T01:00:17;22.30;8.50
77039;DHT22;65970;50.476;4.840;2023-06-14T01:05:17;22.20;9.20
77039;DHT22;65970;50.476;4.840;2023-06-14T01:15:21;22.10;9.60
77039;DHT22;65970;50.476;4.840;2023-06-14T01:20:22;22.00;9.80
77039;DHT22;65970;50.476;4.840;2023-06-14T01:25:22;21.80;10.30
77039;DHT22;65970;50.476;4.840;2023-06-14T01:30:23;21.60;10.40
77039;DHT22;65970;50.476;4.840;2023-06-14T01:35:24;21.60;10.40
77039;DHT22;65970;50.476;4.840;2023-06-14T01:40:24;21.50;10.40
77039;DHT22;65970;50.476;4.840;2023-06-14T01:45:25;21.40;10.60
77039;DHT22;65970;50.476;4.840;2023-06-14T01:50:32;21.30;10.60
77039;DHT22;65970;50.476;4.840;2023-06-14T01:55:32;21.20;10.70
77039;DHT22;65970;50.476;4.840;2023-06-14T02:00:33;21.10;11.10
77039;DHT22;65970;50.476;4.840;2023-06-14T02:05:33;20.90;11.20
77039;DHT22;65970;50.476;4.840;2023-06-14T02:10:34;20.90;11.40
77039;DHT22;65970;50.476;4.840;2023-06-14T02:15:34;20.90;11.20
77039;DHT22;65970;50.476;4.840;2023-06-14T02:20:34;20.80;11.70
77039;DHT22;65970;50.476;4.840;2023-06-14T02:25:35;20.70;12.10
77039;DHT22;65970;50.476;4.840;2023-06-14T02:30:35;20.60;12.40
77039;DHT22;65970;50.476;4.840;2023-06-14T02:35:36;20.60;12.30
77039;DHT22;65970;50.476;4.840;2023-06-14T02:40:36;20.50;12.70
77039;DHT22;65970;50.476;4.840;2023-06-14T02:45:37;20.50;13.30
77039;DHT22;65970;50.476;4.840;2023-06-14T02:50:37;20.40;14.00
77039;DHT22;65970;50.476;4.840;2023-06-14T02:55:38;20.30;15.50
77039;DHT22;65970;50.476;4.840;2023-06-14T03:00:38;20.30;14.50
77039;DHT22;65970;50.476;4.840;2023-06-14T03:05:45;20.30;15.00
77039;DHT22;65970;50.476;4.840;2023-06-14T03:10:46;20.30;13.90
77039;DHT22;65970;50.476;4.840;2023-06-14T03:15:46;20.40;13.50
77039;DHT22;65970;50.476;4.840;2023-06-14T03:20:47;20.30;14.70
77039;DHT22;65970;50.476;4.840;2023-06-14T03:25:47;20.10;14.90
77039;DHT22;65970;50.476;4.840;2023-06-14T03:30:48;20.00;15.20
77039;DHT22;65970;50.476;4.840;2023-06-14T03:35:48;19.90;15.60
77039;DHT22;65970;50.476;4.840;2023-06-14T03:40:49;19.90;15.80
77039;DHT22;65970;50.476;4.840;2023-06-14T03:45:49;19.80;15.60
77039;DHT22;65970;50.476;4.840;2023-06-14T03:50:49;19.70;15.70
77039;DHT22;65970;50.476;4.840;2023-06-14T03:55:50;19.70;16.30
77039;DHT22;65970;50.476;4.840;2023-06-14T04:00:50;19.50;16.40
77039;DHT22;65970;50.476;4.840;2023-06-14T04:05:51;19.50;16.70
77039;DHT22;65970;50.476;4.840;2023-06-14T04:10:51;19.40;16.60
77039;DHT22;65970;50.476;4.840;2023-06-14T04:15:52;19.40;17.10
77039;DHT22;65970;50.476;4.840;2023-06-14T04:20:52;19.40;16.50
77039;DHT22;65970;50.476;4.840;2023-06-14T04:25:53;19.40;16.20
77039;DHT22;65970;50.476;4.840;2023-06-14T04:30:53;19.50;16.50
77039;DHT22;65970;50.476;4.840;2023-06-14T04:35:53;19.40;16.90
77039;DHT22;65970;50.476;4.840;2023-06-14T04:40:54;19.60;16.10
77039;DHT22;65970;50.476;4.840;2023-06-14T04:45:54;19.60;16.40
77039;DHT22;65970;50.476;4.840;2023-06-14T04:50:55;19.60;16.60
77039;DHT22;65970;50.476;4.840;2023-06-14T04:55:55;19.50;17.80
77039;DHT22;65970;50.476;4.840;2023-06-14T05:00:56;19.40;18.20
77039;DHT22;65970;50.476;4.840;2023-06-14T05:05:56;19.40;18.30
77039;DHT22;65970;50.476;4.840;2023-06-14T05:10:56;19.50;19.10
77039;DHT22;65970;50.476;4.840;2023-06-14T05:15:57;19.50;18.60
77039;DHT22;65970;50.476;4.840;2023-06-14T05:20:57;19.60;18.10
77039;DHT22;65970;50.476;4.840;2023-06-14T05:25:58;19.70;19.00
77039;DHT22;65970;50.476;4.840;2023-06-14T05:30:58;19.70;18.80
77039;DHT22;65970;50.476;4.840;2023-06-14T05:35:58;19.60;19.40
77039;DHT22;65970;50.476;4.840;2023-06-14T05:40:59;19.60;17.70
77039;DHT22;65970;50.476;4.840;2023-06-14T05:45:59;19.60;19.10
77039;DHT22;65970;50.476;4.840;2023-06-14T05:51:00;19.70;18.80
77039;DHT22;65970;50.476;4.840;2023-06-14T05:56:00;19.80;19.00
77039;DHT22;65970;50.476;4.840;2023-06-14T06:01:01;19.90;18.50
77039;DHT22;65970;50.476;4.840;2023-06-14T06:06:01;20.00;19.00
77039;DHT22;65970;50.476;4.840;2023-06-14T06:11:02;20.10;18.60
77039;DHT22;65970;50.476;4.840;2023-06-14T06:16:02;20.30;17.60
77039;DHT22;65970;50.476;4.840;2023-06-14T06:21:03;20.40;17.80
77039;DHT22;65970;50.476;4.840;2023-06-14T06:26:04;20.50;18.10
77039;DHT22;65970;50.476;4.840;2023-06-14T06:31:04;20.60;17.70
77039;DHT22;65970;50.476;4.840;2023-06-14T06:36:05;20.70;17.00
77039;DHT22;65970;50.476;4.840;2023-06-14T06:41:05;20.90;17.10
77039;DHT22;65970;50.476;4.840;2023-06-14T06:46:06;21.00;16.80
77039;DHT22;65970;50.476;4.840;2023-06-14T06:51:07;21.10;15.60
77039;DHT22;65970;50.476;4.840;2023-06-14T06:56:07;21.10;15.60
77039;DHT22;65970;50.476;4.840;2023-06-14T07:01:07;21.20;15.50
77039;DHT22;65970;50.476;4.840;2023-06-14T07:06:08;21.40;15.10
77039;DHT22;65970;50.476;4.840;2023-06-14T07:11:08;21.50;14.80
77039;DHT22;65970;50.476;4.840;2023-06-14T07:16:09;21.60;13.80
77039;DHT22;65970;50.476;4.840;2023-06-14T07:21:09;21.80;13.90
77039;DHT22;65970;50.476;4.840;2023-06-14T07:26:10;21.90;15.00
77039;DHT22;65970;50.476;4.840;2023-06-14T07:31:10;22.10;14.10
77039;DHT22;65970;50.476;4.840;2023-06-14T07:36:11;22.20;14.30
77039;DHT22;65970;50.476;4.840;2023-06-14T07:41:11;22.30;14.60
77039;DHT22;65970;50.476;4.840;2023-06-14T07:46:12;22.50;14.00
77039;DHT22;65970;50.476;4.840;2023-06-14T07:51:12;22.60;13.10
77039;DHT22;65970;50.476;4.840;2023-06-14T07:56:13;22.80;12.40
77039;DHT22;65970;50.476;4.840;2023-06-14T08:01:13;23.00;12.30
77039;DHT22;65970;50.476;4.840;2023-06-14T08:06:14;23.10;11.70
77039;DHT22;65970;50.476;4.840;2023-06-14T08:11:15;23.20;11.80
77039;DHT22;65970;50.476;4.840;2023-06-14T08:16:15;23.40;10.90
77039;DHT22;65970;50.476;4.840;2023-06-14T08:21:16;23.60;12.60
77039;DHT22;65970;50.476;4.840;2023-06-14T08:26:16;23.70;10.70
77039;DHT22;65970;50.476;4.840;2023-06-14T08:31:17;23.80;11.00
77039;DHT22;65970;50.476;4.840;2023-06-14T08:36:17;24.00;10.00
77039;DHT22;65970;50.476;4.840;2023-06-14T08:41:21;24.10;9.70
77039;DHT22;65970;50.476;4.840;2023-06-14T08:46:21;24.30;10.00
77039;DHT22;65970;50.476;4.840;2023-06-14T08:51:23;24.40;9.50
77039;DHT22;65970;50.476;4.840;2023-06-14T08:56:25;24.60;8.10
77039;DHT22;65970;50.476;4.840;2023-06-14T09:01:26;24.80;7.10
77039;DHT22;65970;50.476;4.840;2023-06-14T09:06:27;24.90;6.80
77039;DHT22;65970;50.476;4.840;2023-06-14T09:11:27;25.00;7.70
77039;DHT22;65970;50.476;4.840;2023-06-14T09:16:27;25.10;6.40
77039;DHT22;65970;50.476;4.840;2023-06-14T09:21:28;25.20;5.70
77039;DHT22;65970;50.476;4.840;2023-06-14T09:26:33;25.30;5.20
77039;DHT22;65970;50.476;4.840;2023-06-14T09:31:38;25.40;6.60
77039;DHT22;65970;50.476;4.840;2023-06-14T09:36:39;25.60;6.60
77039;DHT22;65970;50.476;4.840;2023-06-14T09:41:40;25.70;6.70
77039;DHT22;65970;50.476;4.840;2023-06-14T09:46:42;25.80;5.00
77039;DHT22;65970;50.476;4.840;2023-06-14T09:51:45;25.90;5.00
77039;DHT22;65970;50.476;4.840;2023-06-14T09:56:46;26.00;5.00
77039;DHT22;65970;50.476;4.840;2023-06-14T10:01:47;26.10;5.00
77039;DHT22;65970;50.476;4.840;2023-06-14T10:06:48;26.10;5.00
77039;DHT22;65970;50.476;4.840;2023-06-14T10:11:50;26.30;5.00
77039;DHT22;65970;50.476;4.840;2023-06-14T10:16:57;26.40;5.00
77039;DHT22;65970;50.476;4.840;2023-06-14T10:22:09;26.50;5.00
77039;DHT22;65970;50.476;4.840;2023-06-14T10:27:14;26.60;5.00
77039;DHT22;65970;50.476;4.840;2023-06-14T10:32:14;26.70;5.00
77039;DHT22;65970;50.476;4.840;2023-06-14T10:37:15;26.90;5.00
77039;DHT22;65970;50.476;4.840;2023-06-14T10:42:16;27.10;5.00
77039;DHT22;65970;50.476;4.840;2023-06-14T10:52:27;27.60;5.00
77039;DHT22;65970;50.476;4.840;2023-06-14T10:57:28;28.00;5.00
77039;DHT22;65970;50.476;4.840;2023-06-14T11:12:57;28.70;5.00
77039;DHT22;65970;50.476;4.840;2023-06-14T11:17:57;28.90;5.00
77039;DHT22;65970;50.476;4.840;2023-06-14T11:23:00;29.00;5.00
77039;DHT22;65970;50.476;4.840;2023-06-14T11:28:01;29.20;5.00
77039;DHT22;65970;50.476;4.840;2023-06-14T11:33:01;29.40;5.00
77039;DHT22;65970;50.476;4.840;2023-06-14T11:38:02;29.60;5.00
77039;DHT22;65970;50.476;4.840;2023-06-14T11:43:02;29.80;5.00
77039;DHT22;65970;50.476;4.840;2023-06-14T11:48:03;30.10;5.00
77039;DHT22;65970;50.476;4.840;2023-06-14T11:53:03;30.60;5.00
77039;DHT22;65970;50.476;4.840;2023-06-14T11:58:04;30.80;5.00
77039;DHT22;65970;50.476;4.840;2023-06-14T12:03:04;30.90;5.00
77039;DHT22;65970;50.476;4.840;2023-06-14T12:08:05;31.20;5.00
77039;DHT22;65970;50.476;4.840;2023-06-14T12:13:05;31.50;5.00
77039;DHT22;65970;50.476;4.840;2023-06-14T12:18:06;31.90;5.00
77039;DHT22;65970;50.476;4.840;2023-06-14T12:23:06;32.10;5.00
77039;DHT22;65970;50.476;4.840;2023-06-14T12:28:07;32.20;5.00
77039;DHT22;65970;50.476;4.840;2023-06-14T12:33:08;32.20;5.00
77039;DHT22;65970;50.476;4.840;2023-06-14T12:38:08;32.30;5.00
77039;DHT22;65970;50.476;4.840;2023-06-14T12:43:09;32.60;5.00
77039;DHT22;65970;50.476;4.840;2023-06-14T12:48:09;32.70;5.00
77039;DHT22;65970;50.476;4.840;2023-06-14T12:53:09;32.90;5.00
77039;DHT22;65970;50.476;4.840;2023-06-14T12:58:10;33.00;5.00
77039;DHT22;65970;50.476;4.840;2023-06-14T13:03:10;32.90;5.00
77039;DHT22;65970;50.476;4.840;2023-06-14T13:08:11;33.00;5.00
77039;DHT22;65970;50.476;4.840;2023-06-14T13:13:11;33.20;5.00
77039;DHT22;65970;50.476;4.840;2023-06-14T13:18:12;33.30;5.00
77039;DHT22;65970;50.476;4.840;2023-06-14T13:23:12;33.10;5.00
77039;DHT22;65970;50.476;4.840;2023-06-14T13:28:13;33.20;5.00
77039;DHT22;65970;50.476;4.840;2023-06-14T13:33:13;33.00;5.00
77039;DHT22;65970;50.476;4.840;2023-06-14T13:38:14;33.10;5.00
77039;DHT22;65970;50.476;4.840;2023-06-14T13:43:14;33.00;5.00
77039;DHT22;65970;50.476;4.840;2023-06-14T13:48:14;33.00;5.00
77039;DHT22;65970;50.476;4.840;2023-06-14T13:53:15;33.10;5.00
77039;DHT22;65970;50.476;4.840;2023-06-14T13:58:15;33.20;5.00
77039;DHT22;65970;50.476;4.840;2023-06-14T14:03:16;32.90;5.00
77039;DHT22;65970;50.476;4.840;2023-06-14T14:08:16;32.90;5.00
77039;DHT22;65970;50.476;4.840;2023-06-14T14:13:17;33.00;5.00
77039;DHT22;65970;50.476;4.840;2023-06-14T14:18:17;33.00;5.00
77039;DHT22;65970;50.476;4.840;2023-06-14T14:23:18;32.90;5.00
77039;DHT22;65970;50.476;4.840;2023-06-14T14:28:18;32.90;5.00
77039;DHT22;65970;50.476;4.840;2023-06-14T14:33:18;32.50;5.00
77039;DHT22;65970;50.476;4.840;2023-06-14T14:38:19;32.20;5.00
77039;DHT22;65970;50.476;4.840;2023-06-14T14:43:19;31.90;5.00
77039;DHT22;65970;50.476;4.840;2023-06-14T14:48:20;31.60;5.00
77039;DHT22;65970;50.476;4.840;2023-06-14T14:53:20;31.30;5.00
77039;DHT22;65970;50.476;4.840;2023-06-14T14:58:21;31.20;5.00
77039;DHT22;65970;50.476;4.840;2023-06-14T15:03:21;30.80;5.00
77039;DHT22;65970;50.476;4.840;2023-06-14T15:08:21;30.60;5.00
77039;DHT22;65970;50.476;4.840;2023-06-14T15:13:22;30.20;5.00
77039;DHT22;65970;50.476;4.840;2023-06-14T15:18:22;29.90;5.00
77039;DHT22;65970;50.476;4.840;2023-06-14T15:23:23;29.70;5.00
77039;DHT22;65970;50.476;4.840;2023-06-14T15:28:23;29.40;5.00
77039;DHT22;65970;50.476;4.840;2023-06-14T15:33:24;29.20;5.00
77039;DHT22;65970;50.476;4.840;2023-06-14T15:38:24;29.00;5.00
77039;DHT22;65970;50.476;4.840;2023-06-14T15:43:24;28.90;5.00
77039;DHT22;65970;50.476;4.840;2023-06-14T15:48:25;28.70;5.00
77039;DHT22;65970;50.476;4.840;2023-06-14T15:53:25;28.60;5.00
77039;DHT22;65970;50.476;4.840;2023-06-14T15:58:26;28.50;5.00
77039;DHT22;65970;50.476;4.840;2023-06-14T16:03:29;28.40;5.00
77039;DHT22;65970;50.476;4.840;2023-06-14T16:08:29;28.20;5.00
77039;DHT22;65970;50.476;4.840;2023-06-14T16:13:29;28.10;5.00
77039;DHT22;65970;50.476;4.840;2023-06-14T16:18:30;28.00;5.00
77039;DHT22;65970;50.476;4.840;2023-06-14T16:23:30;27.80;5.00
77039;DHT22;65970;50.476;4.840;2023-06-14T16:28:31;27.70;5.00
77039;DHT22;65970;50.476;4.840;2023-06-14T16:33:33;27.60;5.00
77039;DHT22;65970;50.476;4.840;2023-06-14T16:38:33;27.40;5.00
77039;DHT22;65970;50.476;4.840;2023-06-14T16:43:34;27.40;5.00
77039;DHT22;65970;50.476;4.840;2023-06-14T16:48:34;27.30;5.00
77039;DHT22;65970;50.476;4.840;2023-06-14T16:53:35;27.20;5.00
77039;DHT22;65970;50.476;4.840;2023-06-14T16:58:35;27.10;5.00
77039;DHT22;65970;50.476;4.840;2023-06-14T17:03:35;27.00;5.00
77039;DHT22;65970;50.476;4.840;2023-06-14T17:08:36;26.90;5.00
77039;DHT22;65970;50.476;4.840;2023-06-14T17:13:36;26.90;5.00
77039;DHT22;65970;50.476;4.840;2023-06-14T17:18:37;26.80;5.00
77039;DHT22;65970;50.476;4.840;2023-06-14T17:23:37;26.70;5.00
77039;DHT22;65970;50.476;4.840;2023-06-14T17:28:38;26.60;5.00
77039;DHT22;65970;50.476;4.840;2023-06-14T17:33:38;26.40;5.00
77039;DHT22;65970;50.476;4.840;2023-06-14T17:38:38;26.40;5.00
77039;DHT22;65970;50.476;4.840;2023-06-14T17:43:39;26.20;5.00
77039;DHT22;65970;50.476;4.840;2023-06-14T17:48:39;26.20;5.00
77039;DHT22;65970;50.476;4.840;2023-06-14T17:53:40;26.10;5.00
77039;DHT22;65970;50.476;4.840;2023-06-14T17:58:40;26.00;5.00
77039;DHT22;65970;50.476;4.840;2023-06-14T18:03:41;26.00;5.00
77039;DHT22;65970;50.476;4.840;2023-06-14T18:08:41;25.90;5.00
77039;DHT22;65970;50.476;4.840;2023-06-14T18:13:42;25.90;5.00
77039;DHT22;65970;50.476;4.840;2023-06-14T18:18:42;25.90;5.00
77039;DHT22;65970;50.476;4.840;2023-06-14T18:23:43;25.80;5.00
77039;DHT22;65970;50.476;4.840;2023-06-14T18:28:43;25.70;5.00
77039;DHT22;65970;50.476;4.840;2023-06-14T18:33:43;25.70;5.00
77039;DHT22;65970;50.476;4.840;2023-06-14T18:38:44;25.70;5.00
77039;DHT22;65970;50.476;4.840;2023-06-14T18:43:45;25.60;5.00
77039;DHT22;65970;50.476;4.840;2023-06-14T18:48:45;25.50;5.00
77039;DHT22;65970;50.476;4.840;2023-06-14T18:53:45;25.40;5.00
77039;DHT22;65970;50.476;4.840;2023-06-14T18:58:46;25.40;5.00
77039;DHT22;65970;50.476;4.840;2023-06-14T19:03:46;25.30;5.00
77039;DHT22;65970;50.476;4.840;2023-06-14T19:08:47;25.20;5.00
77039;DHT22;65970;50.476;4.840;2023-06-14T19:13:47;25.20;5.00
77039;DHT22;65970;50.476;4.840;2023-06-14T19:18:48;25.10;5.00
77039;DHT22;65970;50.476;4.840;2023-06-14T19:23:48;25.10;5.00
77039;DHT22;65970;50.476;4.840;2023-06-14T19:28:48;25.10;5.00
77039;DHT22;65970;50.476;4.840;2023-06-14T19:33:49;25.00;5.00
77039;DHT22;65970;50.476;4.840;2023-06-14T19:38:49;24.90;5.00
77039;DHT22;65970;50.476;4.840;2023-06-14T19:43:50;24.90;5.00
77039;DHT22;65970;50.476;4.840;2023-06-14T19:48:50;24.80;5.00
77039;DHT22;65970;50.476;4.840;2023-06-14T19:53:51;24.70;5.00
77039;DHT22;65970;50.476;4.840;2023-06-14T19:58:51;24.70;5.00
77039;DHT22;65970;50.476;4.840;2023-06-14T20:03:52;24.60;5.00
77039;DHT22;65970;50.476;4.840;2023-06-14T20:08:52;24.50;5.00
77039;DHT22;65970;50.476;4.840;2023-06-14T20:13:52;24.40;5.00
77039;DHT22;65970;50.476;4.840;2023-06-14T20:18:53;24.40;5.00
77039;DHT22;65970;50.476;4.840;2023-06-14T20:23:53;24.30;5.00
77039;DHT22;65970;50.476;4.840;2023-06-14T20:28:54;24.30;5.00
77039;DHT22;65970;50.476;4.840;2023-06-14T20:33:54;24.20;5.00
77039;DHT22;65970;50.476;4.840;2023-06-14T20:38:55;24.10;5.00
77039;DHT22;65970;50.476;4.840;2023-06-14T20:43:55;24.00;5.00
77039;DHT22;65970;50.476;4.840;2023-06-14T20:48:56;23.90;5.00
77039;DHT22;65970;50.476;4.840;2023-06-14T20:53:56;23.80;5.00
77039;DHT22;65970;50.476;4.840;2023-06-14T20:58:56;23.70;5.00
77039;DHT22;65970;50.476;4.840;2023-06-14T21:03:57;23.60;5.00
77039;DHT22;65970;50.476;4.840;2023-06-14T21:08:57;23.60;5.00
77039;DHT22;65970;50.476;4.840;2023-06-14T21:13:58;23.50;5.00
77039;DHT22;65970;50.476;4.840;2023-06-14T21:18:58;23.50;5.00
77039;DHT22;65970;50.476;4.840;2023-06-14T21:23:59;23.40;5.00
77039;DHT22;65970;50.476;4.840;2023-06-14T21:28:59;23.40;5.00
77039;DHT22;65970;50.476;4.840;2023-06-14T21:34:00;23.30;5.00
77039;DHT22;65970;50.476;4.840;2023-06-14T21:39:00;23.30;5.00
77039;DHT22;65970;50.476;4.840;2023-06-14T21:44:01;23.20;5.00
77039;DHT22;65970;50.476;4.840;2023-06-14T21:49:01;23.10;5.00
77039;DHT22;65970;50.476;4.840;2023-06-14T21:54:02;23.20;5.00
77039;DHT22;65970;50.476;4.840;2023-06-14T21:59:02;23.10;5.00
77039;DHT22;65970;50.476;4.840;2023-06-14T22:04:03;23.00;5.00
77039;DHT22;65970;50.476;4.840;2023-06-14T22:09:03;23.00;5.00
77039;DHT22;65970;50.476;4.840;2023-06-14T22:14:04;23.00;5.00
77039;DHT22;65970;50.476;4.840;2023-06-14T22:19:04;22.90;5.00
77039;DHT22;65970;50.476;4.840;2023-06-14T22:24:05;22.90;5.00
77039;DHT22;65970;50.476;4.840;2023-06-14T22:29:06;22.80;5.00
77039;DHT22;65970;50.476;4.840;2023-06-14T22:34:06;22.90;5.00
77039;DHT22;65970;50.476;4.840;2023-06-14T22:39:07;22.80;5.00
77039;DHT22;65970;50.476;4.840;2023-06-14T22:44:07;22.70;5.00
77039;DHT22;65970;50.476;4.840;2023-06-14T22:49:11;22.60;5.00
77039;DHT22;65970;50.476;4.840;2023-06-14T22:54:11;22.50;6.00
77039;DHT22;65970;50.476;4.840;2023-06-14T22:59:12;22.30;6.40
77039;DHT22;65970;50.476;4.840;2023-06-14T23:04:12;22.20;5.20
77039;DHT22;65970;50.476;4.840;2023-06-14T23:09:13;22.20;6.10
77039;DHT22;65970;50.476;4.840;2023-06-14T23:14:13;22.00;6.90
77039;DHT22;65970;50.476;4.840;2023-06-14T23:19:13;21.90;7.50
77039;DHT22;65970;50.476;4.840;2023-06-14T23:24:14;21.80;7.50
77039;DHT22;65970;50.476;4.840;2023-06-14T23:29:14;21.70;8.10
77039;DHT22;65970;50.476;4.840;2023-06-14T23:34:15;21.60;7.90
77039;DHT22;65970;50.476;4.840;2023-06-14T23:39:15;21.60;8.20
77039;DHT22;65970;50.476;4.840;2023-06-14T23:44:16;21.50;8.40
77039;DHT22;65970;50.476;4.840;2023-06-14T23:49:17;21.40;8.90
77039;DHT22;65970;50.476;4.840;2023-06-14T23:54:17;21.40;8.80
77039;DHT22;65970;50.476;4.840;2023-06-14T23:59:21;21.30;8.10
